Summitt, Oklahoma
Current Conditions -  °F | °C
As of 4:53 PM on Wednesday 17 Dec 2014 (Local Time) from KMKO Reporting Station
Moderate Rain Moderate Rain  
Wind Chill: 31°   Ceiling: 7500
Heat Index: 36°   Visibility: 4mi
Dew Point: 34°   Wind: 6mph
Humidity: 93%   Direction: 130°SE
Pressure: 30.22"   Gusts: NA
Location:  35.6818°N, 95.3578°W
Report Text: KMKO 172253Z AUTO 13005KT 4SM RA BR FEW046 OVC075 02/01 A3022 RMK AO2 SLP236 P0015 T00220011
Loading
Personal Weather Stations






























Interactive Weather Map New forecast layout! Learn more

10-Day Weather Forecast

Advertisements
Track Severe Weather on mobile